createdAt,value
2019-02-20T00:00:30.039Z,68.14
2019-02-20T00:03:07.047Z,67.96
2019-02-20T00:05:44.523Z,68.73
2019-02-20T00:08:19.458Z,69.53
2019-02-20T00:10:53.681Z,69.53
2019-02-20T00:13:28.337Z,70.19
2019-02-20T00:16:03.008Z,68.34
2019-02-20T00:18:37.618Z,67.89
2019-02-20T00:21:11.950Z,68.93
2019-02-20T00:23:46.796Z,69.88
2019-02-20T00:26:21.432Z,70.22
2019-02-20T00:28:55.958Z,70.19
2019-02-20T00:31:30.593Z,70.22
2019-02-20T00:34:04.633Z,72.70
2019-02-20T00:36:38.275Z,72.24
2019-02-20T00:39:12.670Z,72.18
2019-02-20T00:41:52.852Z,73.13
2019-02-20T00:44:47.420Z,72.01
2019-02-20T00:47:33.922Z,72.18
2019-02-20T00:50:08.335Z,72.82
2019-02-20T00:52:49.792Z,70.58
2019-02-20T00:55:24.126Z,72.63
2019-02-20T00:57:58.974Z,72.63
2019-02-20T01:00:33.315Z,71.92
2019-02-20T01:03:07.796Z,71.43
2019-02-20T01:05:42.488Z,72.12
2019-02-20T01:08:16.988Z,71.88
2019-02-20T01:10:51.645Z,71.88
2019-02-20T01:13:25.141Z,70.80
2019-02-20T01:15:59.681Z,71.49
2019-02-20T01:18:34.049Z,70.72
2019-02-20T01:21:08.697Z,70.72
2019-02-20T01:23:43.057Z,71.27
2019-02-20T01:26:17.669Z,71.81
2019-02-20T01:28:52.039Z,70.05
2019-02-20T01:31:26.545Z,70.05
2019-02-20T01:34:01.497Z,71.27
2019-02-20T01:36:35.998Z,71.32
2019-02-20T01:39:10.536Z,71.32
2019-02-20T01:41:44.869Z,71.35
2019-02-20T01:44:19.310Z,70.66
2019-02-20T01:46:53.625Z,71.06
2019-02-20T01:49:27.276Z,70.04
2019-02-20T01:52:01.613Z,70.60
2019-02-20T01:54:35.277Z,70.69
2019-02-20T01:57:09.808Z,71.05
2019-02-20T01:59:44.123Z,70.89
2019-02-20T02:02:18.769Z,71.86
2019-02-20T02:04:53.521Z,72.76
2019-02-20T02:07:27.821Z,71.97
2019-02-20T02:10:02.433Z,72.01
2019-02-20T02:12:37.334Z,71.14
2019-02-20T02:15:19.998Z,71.15
2019-02-20T02:17:48.071Z,70.76
2019-02-20T02:20:22.543Z,71.75
2019-02-20T02:22:56.825Z,71.00
2019-02-20T02:25:31.313Z,70.96
2019-02-20T02:28:05.843Z,71.69
2019-02-20T02:30:40.314Z,71.63
2019-02-20T02:33:14.994Z,71.21
2019-02-20T02:35:49.630Z,73.03
2019-02-20T02:38:23.277Z,73.00
2019-02-20T02:40:57.641Z,73.22
2019-02-20T02:43:32.020Z,72.09
2019-02-20T02:46:06.717Z,72.09
2019-02-20T02:48:41.048Z,71.65
2019-02-20T02:51:15.687Z,72.12
2019-02-20T02:53:49.154Z,73.38
2019-02-20T02:56:23.640Z,73.38
2019-02-20T02:58:57.715Z,73.11
2019-02-20T03:01:31.880Z,73.22
2019-02-20T03:04:06.474Z,72.75
2019-02-20T03:06:41.088Z,72.89
2019-02-20T03:09:15.801Z,72.89
2019-02-20T03:11:50.316Z,72.25
2019-02-20T03:14:24.664Z,72.70
2019-02-20T03:16:58.425Z,71.63
2019-02-20T03:19:33.004Z,70.26
2019-02-20T03:22:07.409Z,70.65
2019-02-20T03:24:41.835Z,70.72
2019-02-20T03:27:16.075Z,71.57
2019-02-20T03:29:50.545Z,72.83
2019-02-20T03:32:25.325Z,74.04
2019-02-20T03:34:59.828Z,74.04
2019-02-20T03:37:34.516Z,72.45
2019-02-20T03:40:08.896Z,72.48
2019-02-20T03:42:43.321Z,72.48
2019-02-20T03:45:17.783Z,71.70
2019-02-20T03:47:52.511Z,72.31
2019-02-20T03:50:26.854Z,73.37
2019-02-20T03:53:01.322Z,73.51
2019-02-20T03:55:35.980Z,73.18
2019-02-20T03:58:10.316Z,75.07
2019-02-20T04:00:44.606Z,76.34
2019-02-20T04:03:19.113Z,75.78
2019-02-20T04:05:53.667Z,75.78
2019-02-20T04:08:27.293Z,74.83
2019-02-20T04:11:01.598Z,76.07
2019-02-20T04:13:35.281Z,76.11
2019-02-20T04:16:09.641Z,74.92
2019-02-20T04:18:43.283Z,74.11
2019-02-20T04:21:18.776Z,73.77
2019-02-20T04:24:01.982Z,74.34
2019-02-20T04:26:32.951Z,76.52
2019-02-20T04:29:07.323Z,76.81
2019-02-20T04:31:41.610Z,76.47
2019-02-20T04:34:15.281Z,77.91
2019-02-20T04:36:49.661Z,77.40
2019-02-20T04:39:23.286Z,77.45
2019-02-20T04:41:57.824Z,76.50
2019-02-20T04:44:32.314Z,75.17
2019-02-20T04:47:06.895Z,75.22
2019-02-20T04:49:41.824Z,74.00
2019-02-20T04:52:17.335Z,75.91
2019-02-20T04:54:52.825Z,75.25
2019-02-20T04:57:27.179Z,75.49
2019-02-20T05:00:04.027Z,75.86
2019-02-20T05:02:40.525Z,76.63
2019-02-20T05:05:14.900Z,75.10
2019-02-20T05:07:49.322Z,75.10
2019-02-20T05:10:23.846Z,75.30
2019-02-20T05:12:58.316Z,75.95
2019-02-20T05:15:32.799Z,75.78
2019-02-20T05:18:07.313Z,75.72
2019-02-20T05:20:42.789Z,75.47
2019-02-20T05:23:17.471Z,75.86
2019-02-20T05:25:52.469Z,74.63
2019-02-20T05:28:26.730Z,74.63
2019-02-20T05:31:01.134Z,74.30
2019-02-20T05:33:35.704Z,73.47
2019-02-20T05:36:10.341Z,72.77
2019-02-20T05:38:44.841Z,73.22
2019-02-20T05:41:19.326Z,72.65
2019-02-20T05:43:53.649Z,71.65
2019-02-20T05:46:28.046Z,71.41
2019-02-20T05:49:02.589Z,71.41
2019-02-20T05:51:37.113Z,70.44
2019-02-20T05:54:11.541Z,70.44
2019-02-20T05:56:45.975Z,69.55
2019-02-20T05:59:20.333Z,69.29
2019-02-20T06:01:54.878Z,69.43
2019-02-20T06:04:29.453Z,70.14
2019-02-20T06:07:03.835Z,70.68
2019-02-20T06:09:38.530Z,71.71
2019-02-20T06:12:13.523Z,71.46
2019-02-20T06:14:48.148Z,71.81
2019-02-20T06:17:22.851Z,71.81
2019-02-20T06:19:57.599Z,72.75
2019-02-20T06:22:31.707Z,74.46
2019-02-20T06:25:06.820Z,73.80
2019-02-20T06:27:41.328Z,73.49
2019-02-20T06:30:16.787Z,73.94
2019-02-20T06:32:51.498Z,75.09
2019-02-20T06:35:25.935Z,74.91
2019-02-20T06:38:00.560Z,75.30
2019-02-20T06:40:34.940Z,76.07
2019-02-20T06:43:09.803Z,76.52
2019-02-20T06:45:44.419Z,75.93
2019-02-20T06:48:18.961Z,75.26
2019-02-20T06:50:53.313Z,74.84
2019-02-20T06:53:27.637Z,75.02
2019-02-20T06:56:01.498Z,74.63
2019-02-20T06:58:36.124Z,71.25
2019-02-20T07:01:10.771Z,71.25
2019-02-20T07:03:45.170Z,71.73
2019-02-20T07:07:15.544Z,71.44
2019-02-20T07:10:37.279Z,70.75
2019-02-20T07:14:03.125Z,70.12
2019-02-20T07:17:27.132Z,70.90
2019-02-20T07:21:42.005Z,68.48
2019-02-20T07:25:40.941Z,69.76
2019-02-20T07:29:18.939Z,67.98
2019-02-20T07:31:53.729Z,67.62
2019-02-20T07:34:28.348Z,66.87
2019-02-20T07:37:02.813Z,66.52
2019-02-20T07:39:37.317Z,65.87
2019-02-20T07:42:12.043Z,65.17
2019-02-20T07:44:46.512Z,64.90
2019-02-20T07:47:21.061Z,64.49
2019-02-20T07:49:55.605Z,64.49
2019-02-20T07:52:30.666Z,63.61
2019-02-20T07:55:12.954Z,62.29
2019-02-20T07:57:43.516Z,62.47
2019-02-20T08:00:18.277Z,63.83
2019-02-20T08:02:53.321Z,61.61
2019-02-20T08:05:28.352Z,61.04
2019-02-20T08:08:03.689Z,62.28
2019-02-20T08:10:39.049Z,60.37
2019-02-20T08:13:14.577Z,60.09
2019-02-20T08:15:48.621Z,59.20
2019-02-20T08:18:25.321Z,59.75
2019-02-20T08:21:01.529Z,58.15
2019-02-20T08:23:36.311Z,58.60
2019-02-20T08:26:10.628Z,58.60
2019-02-20T08:28:44.301Z,59.51
2019-02-20T08:31:18.993Z,57.82
2019-02-20T08:33:54.034Z,57.17
2019-02-20T08:36:28.641Z,56.22
2019-02-20T08:39:04.552Z,53.84
2019-02-20T08:41:40.864Z,51.22
2019-02-20T08:44:27.684Z,48.06
2019-02-20T08:47:01.271Z,47.43
2019-02-20T08:49:35.957Z,45.58
2019-02-20T08:52:10.519Z,41.72
2019-02-20T08:54:46.044Z,41.31
2019-02-20T08:57:20.656Z,41.31
2019-02-20T08:59:55.154Z,41.38
2019-02-20T09:02:29.903Z,40.26
2019-02-20T09:05:05.852Z,39.35
2019-02-20T09:07:41.576Z,36.66
2019-02-20T09:10:17.370Z,36.16
2019-02-20T09:12:51.748Z,33.85
2019-02-20T09:15:26.793Z,31.80
2019-02-20T09:18:01.138Z,31.49
2019-02-20T09:20:35.552Z,29.50
2019-02-20T09:23:09.474Z,28.83
2019-02-20T09:25:44.495Z,30.39
2019-02-20T09:28:19.486Z,30.39
2019-02-20T09:30:54.323Z,29.49
2019-02-20T09:33:35.919Z,29.49
2019-02-20T09:36:11.494Z,28.14
2019-02-20T09:38:46.104Z,30.87
2019-02-20T09:41:20.633Z,30.87
2019-02-20T09:43:55.114Z,29.46
2019-02-20T09:46:29.639Z,30.96
2019-02-20T09:49:04.425Z,33.30
2019-02-20T09:51:38.934Z,34.26
2019-02-20T09:54:13.562Z,34.08
2019-02-20T09:56:47.671Z,32.18
2019-02-20T09:59:23.317Z,32.18
2019-02-20T10:01:57.782Z,29.21
2019-02-20T10:04:32.584Z,26.07
2019-02-20T10:07:06.489Z,25.41
2019-02-20T10:09:40.423Z,23.32
2019-02-20T10:12:14.805Z,23.32
2019-02-20T10:14:49.532Z,22.92
2019-02-20T10:17:24.057Z,21.63
2019-02-20T10:19:58.985Z,22.35
2019-02-20T10:22:33.622Z,21.72
2019-02-20T10:25:09.600Z,20.62
2019-02-20T10:27:44.149Z,20.62
2019-02-20T10:30:18.833Z,21.64
2019-02-20T10:32:53.540Z,20.95
2019-02-20T10:35:27.491Z,23.48
2019-02-20T10:38:01.784Z,23.48
2019-02-20T10:40:38.875Z,22.72
2019-02-20T10:43:13.604Z,23.54
2019-02-20T10:45:47.474Z,24.06
2019-02-20T10:48:25.791Z,25.22
2019-02-20T10:51:01.151Z,25.22
2019-02-20T10:53:37.430Z,24.06
2019-02-20T10:56:12.452Z,24.06
2019-02-20T10:58:46.726Z,23.02
2019-02-20T11:01:22.859Z,23.02
2019-02-20T11:03:58.582Z,21.65
2019-02-20T11:06:33.930Z,22.40
2019-02-20T11:09:10.682Z,21.62
2019-02-20T11:11:47.347Z,20.47
2019-02-20T11:14:22.772Z,20.67
2019-02-20T11:16:58.875Z,20.26
2019-02-20T11:19:34.330Z,21.93
2019-02-20T11:22:09.295Z,22.13
2019-02-20T11:24:44.093Z,22.13
2019-02-20T11:27:19.483Z,21.96
2019-02-20T11:29:54.297Z,22.09
2019-02-20T11:32:28.991Z,21.81
2019-02-20T11:35:05.297Z,21.94
2019-02-20T11:37:39.877Z,22.63
2019-02-20T11:40:14.780Z,21.72
2019-02-20T11:42:49.554Z,22.33
2019-02-20T11:45:24.794Z,22.35
2019-02-20T11:47:59.570Z,22.96
2019-02-20T11:50:33.465Z,23.88
2019-02-20T11:53:08.124Z,23.83
2019-02-20T11:55:42.770Z,24.87
2019-02-20T11:58:17.600Z,24.52
2019-02-20T12:00:52.436Z,24.80
2019-02-20T12:03:26.826Z,25.08
2019-02-20T12:06:01.567Z,24.91
2019-02-20T12:08:36.473Z,26.35
2019-02-20T12:11:13.630Z,26.79
2019-02-20T12:13:48.555Z,26.47
2019-02-20T12:16:23.109Z,25.53
2019-02-20T12:18:57.673Z,25.53
2019-02-20T12:21:32.900Z,25.92
2019-02-20T12:24:07.637Z,23.73
2019-02-20T12:26:42.155Z,23.30
2019-02-20T12:29:16.636Z,23.30
2019-02-20T12:31:52.399Z,23.51
2019-02-20T12:34:27.566Z,26.87
2019-02-20T12:37:02.008Z,25.84
2019-02-20T12:39:36.614Z,25.01
2019-02-20T12:42:12.965Z,24.41
2019-02-20T12:44:47.823Z,25.27
2019-02-20T12:47:22.322Z,25.28
2019-02-20T12:49:58.695Z,24.20
2019-02-20T12:52:33.316Z,23.37
2019-02-20T12:55:08.353Z,22.78
2019-02-20T12:57:44.311Z,23.33
2019-02-20T13:00:20.719Z,24.14
2019-02-20T13:02:55.601Z,23.74
2019-02-20T13:05:30.486Z,23.20
2019-02-20T13:08:05.057Z,23.77
2019-02-20T13:10:39.818Z,23.77
2019-02-20T13:13:14.565Z,23.66
2019-02-20T13:15:48.579Z,26.48
2019-02-20T13:18:23.093Z,26.48
2019-02-20T13:20:59.228Z,26.52
2019-02-20T13:23:34.120Z,26.12
2019-02-20T13:26:09.048Z,26.61
2019-02-20T13:28:43.824Z,26.77
2019-02-20T13:31:18.533Z,27.20
2019-02-20T13:33:53.006Z,26.70
2019-02-20T13:36:27.796Z,26.41
2019-02-20T13:39:02.617Z,27.32
2019-02-20T13:41:38.761Z,27.83
2019-02-20T13:44:13.336Z,27.74
2019-02-20T13:46:48.099Z,28.84
2019-02-20T13:49:22.788Z,29.03
2019-02-20T13:51:57.345Z,28.08
2019-02-20T13:54:31.775Z,29.78
2019-02-20T13:57:06.859Z,31.13
2019-02-20T13:59:41.894Z,30.58
2019-02-20T14:02:16.786Z,30.53
2019-02-20T14:04:51.325Z,31.19
2019-02-20T14:07:26.158Z,31.27
2019-02-20T14:10:00.545Z,31.23
2019-02-20T14:12:34.273Z,31.41
2019-02-20T14:15:11.018Z,31.41
2019-02-20T14:17:45.698Z,31.96
2019-02-20T14:20:20.132Z,32.73
2019-02-20T14:22:54.543Z,33.85
2019-02-20T14:25:29.309Z,33.64
2019-02-20T14:28:04.334Z,33.64
2019-02-20T14:30:39.013Z,35.14
2019-02-20T14:33:13.874Z,35.28
2019-02-20T14:35:48.385Z,34.41
2019-02-20T14:38:23.000Z,33.62
2019-02-20T14:40:57.618Z,33.62
2019-02-20T14:43:34.889Z,33.56
2019-02-20T14:46:09.624Z,33.10
2019-02-20T14:48:43.588Z,32.80
2019-02-20T14:51:18.530Z,32.34
2019-02-20T14:53:54.347Z,32.34
2019-02-20T14:56:29.044Z,33.22
2019-02-20T14:59:03.815Z,33.22
2019-02-20T15:01:39.754Z,33.28
2019-02-20T15:04:14.729Z,33.54
2019-02-20T15:06:49.470Z,33.52
2019-02-20T15:09:24.057Z,33.60
2019-02-20T15:11:58.824Z,33.60
2019-02-20T15:14:34.673Z,33.84
2019-02-20T15:17:09.612Z,34.07
2019-02-20T15:19:43.490Z,34.52
2019-02-20T15:22:18.492Z,35.54
2019-02-20T15:24:53.269Z,37.98
2019-02-20T15:27:28.909Z,39.06
2019-02-20T15:30:04.845Z,39.06
2019-02-20T15:32:39.576Z,38.85
2019-02-20T15:35:14.671Z,40.65
2019-02-20T15:37:48.618Z,42.29
2019-02-20T15:40:22.281Z,42.16
2019-02-20T15:42:56.982Z,42.22
2019-02-20T15:45:31.637Z,42.22
2019-02-20T15:48:06.131Z,43.74
2019-02-20T15:50:40.818Z,43.74
2019-02-20T15:53:16.929Z,43.59
2019-02-20T15:55:51.715Z,43.26
2019-02-20T15:58:27.313Z,42.79
2019-02-20T16:01:01.837Z,42.58
2019-02-20T16:03:37.105Z,43.09
2019-02-20T16:06:11.877Z,43.02
2019-02-20T16:08:46.975Z,43.48
2019-02-20T16:11:21.555Z,43.29
2019-02-20T16:13:56.516Z,42.59
2019-02-20T16:16:33.536Z,42.59
2019-02-20T16:19:09.015Z,42.87
2019-02-20T16:21:43.916Z,44.07
2019-02-20T16:24:59.529Z,44.63
2019-02-20T16:30:32.728Z,45.18
2019-02-20T16:33:07.315Z,45.70
2019-02-20T16:35:41.979Z,46.09
2019-02-20T16:38:16.825Z,46.59
2019-02-20T16:40:51.529Z,47.18
2019-02-20T16:43:25.537Z,47.75
2019-02-20T16:45:59.015Z,48.36
2019-02-20T16:48:33.535Z,48.76
2019-02-20T16:51:08.290Z,49.85
2019-02-20T16:53:43.310Z,49.85
2019-02-20T16:56:17.790Z,50.00
2019-02-20T16:58:52.421Z,50.34
2019-02-20T17:01:27.013Z,51.17
2019-02-20T17:04:01.543Z,51.18
2019-02-20T17:06:36.094Z,51.14
2019-02-20T17:09:10.719Z,51.14
2019-02-20T17:11:45.635Z,52.45
2019-02-20T17:14:20.641Z,52.76
2019-02-20T17:16:54.798Z,52.14
2019-02-20T17:19:29.664Z,53.19
2019-02-20T17:22:04.310Z,52.77
2019-02-20T17:24:39.017Z,52.95
2019-02-20T17:27:13.709Z,54.13
2019-02-20T17:29:48.540Z,54.97
2019-02-20T17:32:22.654Z,54.53
2019-02-20T17:34:57.865Z,54.91
2019-02-20T17:37:32.882Z,54.30
2019-02-20T17:40:08.534Z,54.06
2019-02-20T17:42:43.314Z,53.66
2019-02-20T17:45:17.877Z,53.66
2019-02-20T17:47:54.168Z,53.85
2019-02-20T17:50:28.961Z,54.96
2019-02-20T17:53:03.830Z,55.98
2019-02-20T17:55:38.546Z,55.35
2019-02-20T17:58:15.399Z,54.98
2019-02-20T18:00:49.566Z,53.93
2019-02-20T18:03:24.560Z,55.28
2019-02-20T18:05:58.614Z,55.28
2019-02-20T18:08:33.545Z,55.17
2019-02-20T18:11:08.118Z,54.61
2019-02-20T18:13:42.868Z,54.61
2019-02-20T18:18:38.165Z,57.20
2019-02-20T18:21:15.124Z,57.20
2019-02-20T18:23:49.997Z,57.05
2019-02-20T18:26:24.662Z,57.08
2019-02-20T18:28:59.455Z,57.62
2019-02-20T18:31:34.056Z,58.40
2019-02-20T18:34:08.866Z,58.90
2019-02-20T18:36:43.642Z,59.30
2019-02-20T18:39:18.341Z,59.72
2019-02-20T18:41:53.112Z,59.39
2019-02-20T18:44:27.925Z,59.97
2019-02-20T18:47:02.665Z,60.04
2019-02-20T18:49:38.909Z,60.90
2019-02-20T18:52:13.567Z,60.77
2019-02-20T18:54:48.692Z,61.47
2019-02-20T18:57:24.007Z,61.47
2019-02-20T18:59:58.529Z,60.70
2019-02-20T19:02:34.089Z,60.42
2019-02-20T19:05:09.831Z,60.22
2019-02-20T19:07:44.746Z,60.38
2019-02-20T19:10:30.667Z,59.91
2019-02-20T19:13:54.875Z,61.24
2019-02-20T19:18:01.572Z,61.84
2019-02-20T19:20:59.056Z,62.34
2019-02-20T19:24:33.550Z,62.28
2019-02-20T19:28:00.842Z,63.09
2019-02-20T19:31:38.632Z,63.09
2019-02-20T19:35:21.018Z,63.46
2019-02-20T19:38:43.845Z,63.93
2019-02-20T19:42:38.321Z,64.73
2019-02-20T19:46:25.957Z,66.22
2019-02-20T19:50:14.715Z,65.36
2019-02-20T19:54:42.160Z,65.86
2019-02-20T19:58:25.863Z,66.45
2019-02-20T20:02:12.854Z,66.43
2019-02-20T20:05:48.885Z,66.52
2019-02-20T20:09:38.804Z,66.01
2019-02-20T20:13:09.995Z,67.09
2019-02-20T20:16:51.929Z,68.04
2019-02-20T20:20:22.991Z,68.90
2019-02-20T20:23:59.732Z,69.01
2019-02-20T20:27:50.970Z,69.09
2019-02-20T20:31:14.353Z,67.11
2019-02-20T20:35:27.786Z,66.78
2019-02-20T20:39:41.055Z,65.95
2019-02-20T20:43:27.186Z,64.31
2019-02-20T20:46:51.513Z,62.98
2019-02-20T20:50:33.212Z,63.26
2019-02-20T20:54:28.733Z,63.26
2019-02-20T20:58:30.789Z,62.68
2019-02-20T21:02:06.364Z,60.58
2019-02-20T21:05:44.676Z,60.42
2019-02-20T21:09:13.539Z,61.58
2019-02-20T21:12:53.627Z,62.07
2019-02-20T21:16:41.516Z,62.71
2019-02-20T21:20:10.470Z,63.95
2019-02-20T21:24:05.111Z,65.95
2019-02-20T21:27:28.439Z,65.95
2019-02-20T21:31:09.557Z,65.94
2019-02-20T21:34:46.508Z,66.89
2019-02-20T21:38:49.015Z,67.04
2019-02-20T21:42:52.128Z,67.04
2019-02-20T21:46:30.542Z,66.76
2019-02-20T21:49:59.328Z,67.64
2019-02-20T21:54:03.927Z,67.05
2019-02-20T21:57:32.454Z,66.21
2019-02-20T22:01:08.129Z,65.86
2019-02-20T22:05:14.328Z,65.86
2019-02-20T22:09:38.022Z,64.26
2019-02-20T22:13:50.311Z,64.08
2019-02-20T22:17:29.053Z,66.21
2019-02-20T22:20:52.316Z,68.41
2019-02-20T22:24:24.907Z,69.23
2019-02-20T22:28:21.406Z,68.91
2019-02-20T22:32:48.121Z,69.83
2019-02-20T22:36:46.558Z,69.83
2019-02-20T22:40:07.815Z,71.99
2019-02-20T22:43:50.122Z,71.99
2019-02-20T22:47:45.523Z,71.96
2019-02-20T22:51:26.616Z,71.16
2019-02-20T22:55:24.104Z,71.65
2019-02-20T22:59:06.466Z,71.65
2019-02-20T23:03:13.302Z,70.08
2019-02-20T23:07:02.866Z,70.08
2019-02-20T23:10:47.655Z,69.65
2019-02-20T23:14:36.658Z,71.85
2019-02-20T23:17:10.477Z,72.64
2019-02-20T23:19:45.104Z,73.97
2019-02-20T23:22:19.916Z,73.78
2019-02-20T23:24:55.522Z,73.94
2019-02-20T23:27:30.021Z,74.27
2019-02-20T23:30:12.914Z,74.27
2019-02-20T23:32:43.449Z,73.97
2019-02-20T23:35:17.780Z,74.40
2019-02-20T23:37:52.130Z,73.88
2019-02-20T23:40:27.763Z,74.20
2019-02-20T23:43:02.637Z,73.65
2019-02-20T23:45:36.486Z,73.72
2019-02-20T23:48:10.486Z,74.79
2019-02-20T23:50:45.081Z,74.54
2019-02-20T23:53:19.545Z,74.54
2019-02-20T23:55:53.919Z,73.24
2019-02-20T23:58:31.793Z,73.24
